Toledo, Oregon
Current Conditions -  °F | °C
As of 9:35 PM on Wednesday 22 Oct 2014 (Local Time) from KONP Reporting Station
Overcast Overcast  
Wind Chill: 54°   Ceiling: 600
Heat Index: 54°   Visibility: 10mi
Dew Point: 54°   Wind: 8mph
Humidity: 100%   Direction: 190°S
Pressure: 29.8"   Gusts: NA
Location:  44.62°N, 123.94°W
Report Text: KONP 230435Z AUTO 19007KT 10SM BKN006 BKN010 OVC044 12/12 A2980 RMK AO2 P0006
Loading
Personal Weather Stations






























Interactive Weather Map
Tropical Storm Tracking
New forecast layout! Learn more

10-Day Weather Forecast

Advertisements
Track Severe Weather on mobile